createdAt,value
2023-03-11T00:00:57.484Z,0.85
2023-03-11T00:03:24.742Z,1.05
2023-03-11T00:05:53.006Z,0.70
2023-03-11T00:08:22.618Z,0.90
2023-03-11T00:10:53.489Z,1.00
2023-03-11T00:13:20.128Z,0.80
2023-03-11T00:15:50.457Z,0.65
2023-03-11T00:18:17.704Z,0.85
2023-03-11T00:20:46.282Z,0.90
2023-03-11T00:23:14.282Z,0.80
2023-03-11T00:25:42.483Z,0.70
2023-03-11T00:28:10.461Z,0.80
2023-03-11T00:30:38.279Z,0.90
2023-03-11T00:33:05.398Z,0.60
2023-03-11T00:35:33.730Z,0.60
2023-03-11T00:38:03.871Z,0.70
2023-03-11T00:40:31.974Z,0.80
2023-03-11T00:42:59.805Z,0.73
2023-03-11T00:45:28.141Z,0.70
2023-03-11T00:47:55.440Z,0.65
2023-03-11T00:50:25.738Z,0.90
2023-03-11T00:52:52.994Z,0.93
2023-03-11T00:55:25.841Z,0.70
2023-03-11T00:57:54.464Z,0.63
2023-03-11T01:00:22.668Z,0.95
2023-03-11T01:02:49.364Z,0.82
2023-03-11T01:05:19.495Z,0.65
2023-03-11T01:07:46.033Z,0.80
2023-03-11T01:10:13.581Z,0.98
2023-03-11T01:12:40.273Z,0.70
2023-03-11T01:15:08.128Z,0.63
2023-03-11T01:17:34.831Z,0.50
2023-03-11T01:20:01.471Z,0.90
2023-03-11T01:22:28.029Z,0.95
2023-03-11T01:24:54.557Z,0.50
2023-03-11T01:27:21.637Z,0.55
2023-03-11T01:29:48.264Z,0.90
2023-03-11T01:32:14.823Z,0.68
2023-03-11T01:34:41.402Z,0.80
2023-03-11T01:37:07.974Z,0.57
2023-03-11T01:39:35.627Z,0.55
2023-03-11T01:42:02.271Z,0.85
2023-03-11T01:44:28.798Z,0.70
2023-03-11T01:46:58.406Z,1.40
2023-03-11T01:49:25.041Z,0.52
2023-03-11T01:51:57.215Z,0.73
2023-03-11T01:54:37.702Z,0.95
2023-03-11T01:57:12.532Z,0.50
2023-03-11T01:59:44.349Z,0.90
2023-03-11T02:02:29.646Z,0.60
2023-03-11T02:04:56.982Z,0.68
2023-03-11T02:07:23.502Z,0.80
2023-03-11T02:09:50.042Z,1.20
2023-03-11T02:12:16.713Z,1.00
2023-03-11T02:14:47.905Z,0.80
2023-03-11T02:17:15.079Z,1.00
2023-03-11T02:19:57.402Z,1.40
2023-03-11T02:22:24.451Z,0.85
2023-03-11T02:25:01.891Z,0.85
2023-03-11T02:27:31.308Z,0.90
2023-03-11T02:30:00.392Z,1.77
2023-03-11T02:32:27.587Z,0.90
2023-03-11T02:34:54.212Z,1.00
2023-03-11T02:37:20.843Z,0.85
2023-03-11T02:39:50.200Z,1.13
2023-03-11T02:42:25.351Z,1.23
2023-03-11T02:45:07.801Z,1.00
2023-03-11T02:47:36.036Z,0.60
2023-03-11T02:50:02.730Z,1.58
2023-03-11T02:52:32.015Z,1.13
2023-03-11T02:54:58.568Z,0.80
2023-03-11T02:57:25.216Z,0.80
2023-03-11T02:59:51.772Z,1.10
2023-03-11T03:02:18.360Z,0.98
2023-03-11T03:04:45.000Z,1.00
2023-03-11T03:07:11.749Z,0.80
2023-03-11T03:09:38.372Z,0.98
2023-03-11T03:12:05.489Z,1.02
2023-03-11T03:14:32.569Z,1.00
2023-03-11T03:16:59.421Z,0.80
2023-03-11T03:19:26.138Z,0.77
2023-03-11T03:21:52.696Z,1.10
2023-03-11T03:24:19.262Z,1.00
2023-03-11T03:26:45.809Z,1.00
2023-03-11T03:29:12.386Z,1.20
2023-03-11T03:31:39.706Z,0.98
2023-03-11T03:34:06.243Z,1.33
2023-03-11T03:36:32.815Z,0.80
2023-03-11T03:38:59.758Z,0.95
2023-03-11T03:41:26.379Z,0.95
2023-03-11T03:43:54.683Z,1.10
2023-03-11T03:46:21.809Z,1.00
2023-03-11T03:48:48.424Z,1.00
2023-03-11T03:51:15.980Z,1.48
2023-03-11T03:53:43.027Z,0.88
2023-03-11T03:56:12.039Z,1.02
2023-03-11T03:58:38.883Z,1.20
2023-03-11T04:01:06.486Z,1.02
2023-03-11T04:03:35.074Z,1.75
2023-03-11T04:06:11.278Z,1.10
2023-03-11T04:08:38.076Z,0.90
2023-03-11T04:11:04.723Z,1.63
2023-03-11T04:13:31.552Z,1.50
2023-03-11T04:15:58.300Z,1.75
2023-03-11T04:18:24.896Z,1.48
2023-03-11T04:20:51.409Z,2.50
2023-03-11T04:23:18.022Z,1.90
2023-03-11T04:25:44.622Z,1.77
2023-03-11T04:28:11.188Z,1.85
2023-03-11T04:30:38.077Z,2.00
2023-03-11T04:33:04.659Z,1.67
2023-03-11T04:35:31.205Z,1.63
2023-03-11T04:37:57.767Z,1.58
2023-03-11T04:40:24.342Z,1.63
2023-03-11T04:42:50.868Z,1.92
2023-03-11T04:45:18.500Z,2.20
2023-03-11T04:47:48.640Z,1.80
2023-03-11T04:50:16.014Z,1.58
2023-03-11T04:52:42.760Z,2.30
2023-03-11T04:55:10.018Z,2.00
2023-03-11T04:57:37.199Z,2.00
2023-03-11T05:00:08.725Z,2.10
2023-03-11T05:02:35.587Z,1.58
2023-03-11T05:05:02.204Z,2.53
2023-03-11T05:07:28.907Z,1.95
2023-03-11T05:09:55.401Z,1.58
2023-03-11T05:12:21.928Z,1.90
2023-03-11T05:14:48.765Z,1.95
2023-03-11T05:17:15.889Z,1.90
2023-03-11T05:19:42.449Z,3.65
2023-03-11T05:22:09.058Z,2.50
2023-03-11T05:24:35.626Z,2.28
2023-03-11T05:27:02.343Z,3.30
2023-03-11T05:29:29.788Z,2.50
2023-03-11T05:31:56.605Z,2.17
2023-03-11T05:34:23.539Z,2.60
2023-03-11T05:36:50.151Z,4.03
2023-03-11T05:39:16.804Z,2.22
2023-03-11T05:41:43.440Z,2.30
2023-03-11T05:44:10.083Z,2.65
2023-03-11T05:46:36.690Z,2.20
2023-03-11T05:49:03.364Z,2.42
2023-03-11T05:51:29.961Z,2.58
2023-03-11T05:53:56.965Z,2.60
2023-03-11T05:56:24.102Z,2.90
2023-03-11T05:58:50.793Z,2.67
2023-03-11T06:01:19.397Z,2.67
2023-03-11T06:03:46.170Z,3.00
2023-03-11T06:06:14.162Z,2.40
2023-03-11T06:08:45.859Z,2.28
2023-03-11T06:11:13.188Z,2.40
2023-03-11T06:13:39.730Z,2.63
2023-03-11T06:16:07.235Z,2.15
2023-03-11T06:18:34.317Z,2.63
2023-03-11T06:21:02.044Z,2.20
2023-03-11T06:23:30.134Z,2.72
2023-03-11T06:26:01.741Z,2.47
2023-03-11T06:28:29.261Z,2.97
2023-03-11T06:30:56.809Z,2.33
2023-03-11T06:33:24.041Z,2.30
2023-03-11T06:36:01.352Z,2.08
2023-03-11T06:38:28.054Z,1.95
2023-03-11T06:40:54.923Z,3.10
2023-03-11T06:43:22.149Z,1.83
2023-03-11T06:45:48.789Z,1.35
2023-03-11T06:48:15.373Z,1.65
2023-03-11T06:50:41.953Z,1.85
2023-03-11T06:53:08.808Z,2.20
2023-03-11T06:55:35.866Z,2.00
2023-03-11T06:58:02.982Z,1.40
2023-03-11T07:00:31.199Z,1.95
2023-03-11T07:02:57.956Z,1.50
2023-03-11T07:05:24.613Z,1.92
2023-03-11T07:07:53.898Z,2.45
2023-03-11T07:10:20.458Z,1.88
2023-03-11T07:12:47.355Z,1.67
2023-03-11T07:15:14.259Z,2.60
2023-03-11T07:17:40.835Z,2.53
2023-03-11T07:20:08.524Z,2.53
2023-03-11T07:22:35.058Z,1.83
2023-03-11T07:25:01.736Z,2.03
2023-03-11T07:27:28.952Z,1.77
2023-03-11T07:29:55.480Z,1.88
2023-03-11T07:32:22.116Z,1.48
2023-03-11T07:34:48.733Z,1.80
2023-03-11T07:37:15.492Z,1.77
2023-03-11T07:39:42.155Z,1.20
2023-03-11T07:42:11.572Z,1.38
2023-03-11T07:44:38.160Z,1.95
2023-03-11T07:47:06.077Z,1.77
2023-03-11T07:49:33.093Z,1.80
2023-03-11T07:51:59.779Z,1.90
2023-03-11T07:54:26.387Z,2.95
2023-03-11T07:56:52.936Z,1.90
2023-03-11T07:59:19.893Z,2.00
2023-03-11T08:01:47.349Z,2.03
2023-03-11T08:04:16.834Z,1.75
2023-03-11T08:06:46.069Z,2.20
2023-03-11T08:09:13.500Z,1.90
2023-03-11T08:11:40.583Z,2.08
2023-03-11T08:14:07.314Z,1.98
2023-03-11T08:16:34.114Z,1.88
2023-03-11T08:19:00.720Z,2.30
2023-03-11T08:21:31.769Z,1.88
2023-03-11T08:24:00.889Z,3.63
2023-03-11T08:26:28.397Z,2.47
2023-03-11T08:28:56.213Z,1.52
2023-03-11T08:31:26.939Z,1.88
2023-03-11T08:33:58.362Z,1.15
2023-03-11T08:36:25.025Z,2.00
2023-03-11T08:38:52.046Z,1.60
2023-03-11T08:41:19.374Z,1.65
2023-03-11T08:43:46.238Z,1.75
2023-03-11T08:46:22.719Z,1.63
2023-03-11T08:48:50.928Z,1.30
2023-03-11T08:51:18.012Z,1.63
2023-03-11T08:53:44.663Z,1.33
2023-03-11T08:56:11.347Z,1.80
2023-03-11T08:58:38.280Z,1.42
2023-03-11T09:01:06.192Z,2.13
2023-03-11T09:03:35.408Z,2.08
2023-03-11T09:06:04.898Z,2.28
2023-03-11T09:08:31.573Z,6.30
2023-03-11T09:10:58.461Z,2.00
2023-03-11T09:13:25.414Z,3.53
2023-03-11T09:15:52.853Z,1.63
2023-03-11T09:18:22.633Z,1.50
2023-03-11T09:20:49.389Z,2.10
2023-03-11T09:23:19.785Z,2.35
2023-03-11T09:25:49.139Z,2.00
2023-03-11T09:28:15.695Z,1.30
2023-03-11T09:30:42.314Z,1.63
2023-03-11T09:33:08.986Z,1.92
2023-03-11T09:35:41.233Z,1.40
2023-03-11T09:38:07.784Z,1.35
2023-03-11T09:40:56.543Z,1.23
2023-03-11T09:43:58.329Z,1.67
2023-03-11T09:46:50.858Z,2.58
2023-03-11T09:49:35.835Z,1.25
2023-03-11T09:52:13.908Z,1.25
2023-03-11T09:55:00.398Z,1.58
2023-03-11T09:57:32.249Z,1.60
2023-03-11T10:00:02.736Z,1.48
2023-03-11T10:02:30.817Z,1.25
2023-03-11T10:05:03.307Z,1.42
2023-03-11T10:10:15.030Z,1.42
2023-03-11T10:13:20.068Z,1.20
2023-03-11T10:15:58.568Z,1.40
2023-03-11T10:18:37.437Z,1.50
2023-03-11T10:21:28.694Z,1.55
2023-03-11T10:24:32.014Z,1.13
2023-03-11T10:27:06.231Z,2.88
2023-03-11T10:29:47.191Z,3.38
2023-03-11T10:32:36.208Z,1.40
2023-03-11T10:35:46.235Z,1.08
2023-03-11T10:38:22.399Z,8.30
2023-03-11T10:40:53.678Z,6.85
2023-03-11T10:43:40.543Z,4.78
2023-03-11T10:46:17.763Z,2.88
2023-03-11T10:48:44.413Z,0.93
2023-03-11T10:51:22.837Z,1.00
2023-03-11T10:53:55.684Z,1.40
2023-03-11T10:56:28.700Z,1.25
2023-03-11T10:58:56.121Z,0.85
2023-03-11T11:01:22.878Z,0.70
2023-03-11T11:03:57.624Z,0.70
2023-03-11T11:06:37.386Z,1.33
2023-03-11T11:09:17.969Z,1.38
2023-03-11T11:12:03.332Z,2.30
2023-03-11T11:14:52.960Z,1.73
2023-03-11T11:17:34.274Z,1.50
2023-03-11T11:20:13.094Z,1.08
2023-03-11T11:22:48.837Z,1.27
2023-03-11T11:25:36.930Z,1.55
2023-03-11T11:28:20.858Z,1.48
2023-03-11T11:31:06.125Z,1.73
2023-03-11T11:33:50.879Z,1.77
2023-03-11T11:36:18.896Z,0.95
2023-03-11T11:38:45.470Z,1.45
2023-03-11T11:41:18.212Z,0.90
2023-03-11T11:43:58.218Z,0.95
2023-03-11T11:46:31.444Z,1.00
2023-03-11T11:49:20.833Z,1.38
2023-03-11T11:51:52.092Z,1.30
2023-03-11T11:54:29.229Z,1.75
2023-03-11T11:56:56.898Z,1.00
2023-03-11T11:59:25.238Z,1.50
2023-03-11T12:02:16.494Z,1.00
2023-03-11T12:04:48.043Z,1.02
2023-03-11T12:07:34.198Z,0.90
2023-03-11T12:10:38.318Z,0.95
2023-03-11T12:13:14.295Z,1.58
2023-03-11T12:15:55.503Z,1.67
2023-03-11T12:18:45.071Z,1.00
2023-03-11T12:21:28.307Z,0.80
2023-03-11T12:24:21.719Z,1.13
2023-03-11T12:26:52.284Z,2.55
2023-03-11T12:29:43.332Z,5.50
2023-03-11T12:32:23.561Z,42.10
2023-03-11T12:34:50.392Z,17.25
2023-03-11T12:37:22.469Z,7.70
2023-03-11T12:39:49.120Z,8.57
2023-03-11T12:42:36.853Z,3.60
2023-03-11T12:45:47.421Z,2.75
2023-03-11T12:48:29.407Z,1.30
2023-03-11T12:50:59.913Z,1.40
2023-03-11T12:53:47.146Z,0.95
2023-03-11T12:56:39.613Z,1.73
2023-03-11T12:59:14.563Z,0.75
2023-03-11T13:02:11.984Z,1.17
2023-03-11T13:05:07.628Z,0.90
2023-03-11T13:07:49.044Z,1.85
2023-03-11T13:10:18.563Z,1.05
2023-03-11T13:12:50.407Z,1.02
2023-03-11T13:15:22.692Z,0.80
2023-03-11T13:18:05.255Z,1.55
2023-03-11T13:20:44.378Z,1.17
2023-03-11T13:23:14.110Z,1.10
2023-03-11T13:26:03.751Z,0.80
2023-03-11T13:28:58.427Z,1.23
2023-03-11T13:31:39.200Z,0.60
2023-03-11T13:34:17.465Z,0.70
2023-03-11T13:37:18.124Z,2.75
2023-03-11T13:40:13.996Z,1.38
2023-03-11T13:42:45.743Z,1.70
2023-03-11T13:45:32.196Z,2.17
2023-03-11T13:48:07.870Z,2.63
2023-03-11T13:50:38.879Z,1.10
2023-03-11T13:53:15.692Z,2.33
2023-03-11T13:55:46.325Z,1.48
2023-03-11T13:58:31.092Z,0.93
2023-03-11T14:00:59.943Z,0.60
2023-03-11T14:03:31.646Z,0.88
2023-03-11T14:06:04.955Z,1.00
2023-03-11T14:08:35.547Z,0.90
2023-03-11T14:11:08.316Z,1.08
2023-03-11T14:13:43.385Z,0.90
2023-03-11T14:16:44.333Z,1.00
2023-03-11T14:19:15.897Z,1.13
2023-03-11T14:21:44.291Z,60.35
2023-03-11T14:24:23.519Z,3.63
2023-03-11T14:26:55.080Z,0.88
2023-03-11T14:29:32.807Z,1.00
2023-03-11T14:31:59.565Z,0.98
2023-03-11T14:34:28.818Z,0.93
2023-03-11T14:36:58.894Z,1.33
2023-03-11T14:39:29.632Z,1.45
2023-03-11T14:42:03.926Z,2.47
2023-03-11T14:44:38.641Z,2.22
2023-03-11T14:47:12.052Z,1.70
2023-03-11T14:49:39.688Z,0.60
2023-03-11T14:52:14.074Z,0.50
2023-03-11T14:54:41.682Z,1.02
2023-03-11T14:57:22.266Z,0.70
2023-03-11T14:59:50.671Z,0.82
2023-03-11T15:02:35.764Z,0.55
2023-03-11T15:05:10.380Z,6.88
2023-03-11T15:07:38.336Z,3.17
2023-03-11T15:10:09.979Z,1.73
2023-03-11T15:12:44.158Z,1.38
2023-03-11T15:15:40.694Z,1.00
2023-03-11T15:18:22.800Z,1.60
2023-03-11T15:21:03.870Z,0.70
2023-03-11T15:23:31.053Z,0.80
2023-03-11T15:25:57.733Z,0.65
2023-03-11T15:28:28.068Z,1.00
2023-03-11T15:31:22.448Z,1.58
2023-03-11T15:33:51.512Z,5.38
2023-03-11T15:36:31.394Z,0.98
2023-03-11T15:39:28.898Z,0.90
2023-03-11T15:42:03.547Z,0.70
2023-03-11T15:44:33.306Z,0.93
2023-03-11T15:47:00.904Z,0.75
2023-03-11T15:49:29.119Z,3.95
2023-03-11T15:51:59.855Z,0.90
2023-03-11T15:54:27.223Z,1.30
2023-03-11T15:56:55.514Z,1.02
2023-03-11T15:59:22.428Z,0.95
2023-03-11T16:01:48.959Z,0.82
2023-03-11T16:04:18.498Z,1.33
2023-03-11T16:06:49.584Z,0.88
2023-03-11T16:09:20.835Z,1.45
2023-03-11T16:11:47.424Z,0.77
2023-03-11T16:14:20.580Z,0.60
2023-03-11T16:16:47.613Z,0.63
2023-03-11T16:19:14.320Z,0.80
2023-03-11T16:21:46.006Z,1.05
2023-03-11T16:24:18.959Z,1.25
2023-03-11T16:26:45.809Z,1.00
2023-03-11T16:29:19.359Z,0.70
2023-03-11T16:31:46.526Z,0.60
2023-03-11T16:34:13.268Z,0.75
2023-03-11T16:36:39.849Z,1.85
2023-03-11T16:39:06.733Z,0.82
2023-03-11T16:41:42.172Z,1.00
2023-03-11T16:44:09.959Z,1.75
2023-03-11T16:46:36.956Z,1.50
2023-03-11T16:49:03.992Z,0.70
2023-03-11T16:51:31.149Z,0.77
2023-03-11T16:53:58.069Z,1.10
2023-03-11T16:56:24.731Z,1.02
2023-03-11T16:58:51.458Z,0.90
2023-03-11T17:01:19.156Z,0.73
2023-03-11T17:03:48.797Z,1.00
2023-03-11T17:06:17.045Z,0.93
2023-03-11T17:08:48.881Z,1.08
2023-03-11T17:11:23.259Z,0.50
2023-03-11T17:13:50.498Z,24.35
2023-03-11T17:16:17.190Z,19.50
2023-03-11T17:18:43.952Z,14.38
2023-03-11T17:21:13.381Z,1.10
2023-03-11T17:23:40.303Z,1.60
2023-03-11T17:26:14.995Z,0.52
2023-03-11T17:28:42.425Z,1.05
2023-03-11T17:31:15.191Z,0.73
2023-03-11T17:33:42.396Z,0.60
2023-03-11T17:36:12.904Z,1.00
2023-03-11T17:38:39.570Z,0.68
2023-03-11T17:41:16.924Z,1.00
2023-03-11T17:43:44.172Z,1.65
2023-03-11T17:46:14.372Z,1.40
2023-03-11T17:48:45.217Z,1.90
2023-03-11T17:51:14.600Z,1.38
2023-03-11T17:53:45.549Z,1.80
2023-03-11T17:56:14.505Z,1.40
2023-03-11T17:58:41.876Z,0.90
2023-03-11T18:01:12.871Z,0.98
2023-03-11T18:03:39.474Z,0.80
2023-03-11T18:06:06.831Z,1.10
2023-03-11T18:08:35.431Z,1.00
2023-03-11T18:11:10.499Z,0.85
2023-03-11T18:13:38.622Z,1.15
2023-03-11T18:16:18.081Z,1.05
2023-03-11T18:18:45.203Z,0.80
2023-03-11T18:21:20.621Z,2.58
2023-03-11T18:23:48.191Z,4.07
2023-03-11T18:26:17.392Z,3.63
2023-03-11T18:28:44.820Z,4.85
2023-03-11T18:31:17.237Z,6.63
2023-03-11T18:33:48.940Z,9.70
2023-03-11T18:36:18.128Z,6.63
2023-03-11T18:38:45.337Z,6.72
2023-03-11T18:41:12.136Z,4.47
2023-03-11T18:43:38.664Z,3.67
2023-03-11T18:46:10.231Z,4.50
2023-03-11T18:48:37.630Z,4.75
2023-03-11T18:51:04.660Z,8.90
2023-03-11T18:53:31.249Z,10.20
2023-03-11T18:56:12.424Z,10.05
2023-03-11T18:58:39.004Z,12.50
2023-03-11T19:01:18.044Z,9.80
2023-03-11T19:03:49.815Z,9.55
2023-03-11T19:06:16.696Z,8.40
2023-03-11T19:08:43.782Z,7.63
2023-03-11T19:11:12.386Z,38.38
2023-03-11T19:13:46.597Z,28.48
2023-03-11T19:16:16.949Z,8.52
2023-03-11T19:18:43.891Z,8.35
2023-03-11T19:21:12.979Z,8.10
2023-03-11T19:23:40.177Z,14.50
2023-03-11T19:26:07.168Z,15.38
2023-03-11T19:28:33.943Z,15.55
2023-03-11T19:31:00.577Z,17.27
2023-03-11T19:33:27.589Z,19.40
2023-03-11T19:35:59.687Z,20.52
2023-03-11T19:38:27.343Z,17.77
2023-03-11T19:41:05.005Z,16.60
2023-03-11T19:43:31.944Z,16.05
2023-03-11T19:45:58.677Z,20.27
2023-03-11T19:48:25.285Z,23.65
2023-03-11T19:50:52.062Z,23.30
2023-03-11T19:53:20.433Z,24.20
2023-03-11T19:55:50.101Z,22.02
2023-03-11T19:58:17.926Z,16.65
2023-03-11T20:00:45.126Z,14.70
2023-03-11T20:03:12.818Z,13.90
2023-03-11T20:05:41.236Z,11.90
2023-03-11T20:08:08.718Z,13.00
2023-03-11T20:10:39.940Z,12.23
2023-03-11T20:13:07.185Z,12.80
2023-03-11T20:15:33.816Z,14.40
2023-03-11T20:18:01.173Z,14.63
2023-03-11T20:20:30.880Z,14.93
2023-03-11T20:22:58.201Z,15.40
2023-03-11T20:25:25.593Z,14.43
2023-03-11T20:27:53.293Z,14.90
2023-03-11T20:30:20.236Z,16.15
2023-03-11T20:32:47.449Z,16.08
2023-03-11T20:35:15.261Z,18.70
2023-03-11T20:37:43.390Z,22.65
2023-03-11T20:40:14.824Z,69.78
2023-03-11T20:42:46.627Z,33.97
2023-03-11T20:45:16.223Z,25.83
2023-03-11T20:47:44.348Z,26.73
2023-03-11T20:50:14.386Z,26.40
2023-03-11T20:52:41.040Z,29.13
2023-03-11T20:55:10.116Z,26.35
2023-03-11T20:57:38.147Z,25.30
2023-03-11T21:00:11.630Z,26.20
2023-03-11T21:02:40.021Z,26.65
2023-03-11T21:05:08.476Z,29.02
2023-03-11T21:07:35.654Z,26.98
2023-03-11T21:10:04.639Z,28.55
2023-03-11T21:12:31.464Z,29.08
2023-03-11T21:14:58.230Z,39.13
2023-03-11T21:17:24.853Z,69.78
2023-03-11T21:19:51.530Z,53.70
2023-03-11T21:22:18.156Z,32.20
2023-03-11T21:24:45.285Z,25.90
2023-03-11T21:27:12.067Z,23.48
2023-03-11T21:29:38.745Z,21.42
2023-03-11T21:32:05.768Z,20.65
2023-03-11T21:34:32.557Z,20.05
2023-03-11T21:36:59.191Z,19.17
2023-03-11T21:39:25.764Z,18.35
2023-03-11T21:41:53.323Z,16.20
2023-03-11T21:44:20.063Z,12.70
2023-03-11T21:46:47.083Z,11.40
2023-03-11T21:49:14.928Z,11.20
2023-03-11T21:51:41.790Z,10.52
2023-03-11T21:54:10.429Z,10.57
2023-03-11T21:56:37.144Z,14.23
2023-03-11T21:59:04.269Z,19.58
2023-03-11T22:01:31.522Z,24.27
2023-03-11T22:03:58.362Z,27.27
2023-03-11T22:06:25.174Z,24.23
2023-03-11T22:08:52.463Z,23.15
2023-03-11T22:11:20.521Z,20.83
2023-03-11T22:13:49.478Z,65.80
2023-03-11T22:16:16.773Z,56.25
2023-03-11T22:18:43.736Z,51.28
2023-03-11T22:21:11.177Z,42.90
2023-03-11T22:23:37.994Z,37.90
2023-03-11T22:26:04.938Z,35.97
2023-03-11T22:28:31.645Z,33.88
2023-03-11T22:30:58.404Z,31.08
2023-03-11T22:33:26.015Z,28.63
2023-03-11T22:35:57.392Z,27.38
2023-03-11T22:38:24.022Z,29.75
2023-03-11T22:40:51.105Z,26.80
2023-03-11T22:43:17.769Z,26.38
2023-03-11T22:45:45.062Z,25.73
2023-03-11T22:48:11.606Z,25.20
2023-03-11T22:50:42.352Z,25.80
2023-03-11T22:53:08.958Z,25.35
2023-03-11T22:55:39.973Z,26.02
2023-03-11T22:58:06.898Z,27.77
2023-03-11T23:00:34.038Z,27.42
2023-03-11T23:03:00.719Z,28.08
2023-03-11T23:05:27.434Z,22.77
2023-03-11T23:07:54.108Z,22.75
2023-03-11T23:10:21.556Z,20.08
2023-03-11T23:12:48.933Z,22.73
2023-03-11T23:15:18.040Z,21.48
2023-03-11T23:17:44.648Z,24.75
2023-03-11T23:20:13.880Z,25.02
2023-03-11T23:22:41.702Z,26.00
2023-03-11T23:25:11.694Z,25.48
2023-03-11T23:27:38.233Z,25.98
2023-03-11T23:30:05.777Z,25.45
2023-03-11T23:32:32.394Z,23.55
2023-03-11T23:34:59.024Z,22.42
2023-03-11T23:37:25.565Z,21.92
2023-03-11T23:39:52.211Z,21.58
2023-03-11T23:42:25.841Z,20.90
2023-03-11T23:44:53.225Z,19.13
2023-03-11T23:47:19.834Z,20.67
2023-03-11T23:49:46.386Z,20.52
2023-03-11T23:52:12.951Z,18.13
2023-03-11T23:54:39.492Z,17.05
2023-03-11T23:57:06.068Z,16.65
2023-03-11T23:59:32.755Z,16.73
